Time;durP1;ratioP1;P1;durP2;ratioP2;P2;SDS_P1;SDS_P2;PMS_P1;PMS_P2;Temp;Humidity;BMP_temperature;BMP_pressure;BME280_temperature;BME280_humidity;BME280_pressure;Samples;Min_cycle;Max_cycle;Signal;HPM_P1;HPM_P2
2023/01/29 00:01:55;;;;;;;20.80;8.23;;;2.70;99.90;;;;;;5152643;27;20038;-71
2023/01/29 00:04:22;;;;;;;20.33;7.97;;;2.70;99.90;;;;;;5154773;27;20057;-72
2023/01/29 00:06:47;;;;;;;;;;;2.70;99.90;;;;;;5153415;27;20039;-72
2023/01/29 00:09:13;;;;;;;18.63;8.73;;;2.70;99.90;;;;;;5136150;27;19927;-71
2023/01/29 00:11:39;;;;;;;23.00;9.52;;;3.10;99.90;;;;;;5134557;27;20047;-71
2023/01/29 00:14:05;;;;;;;21.58;9.23;;;2.70;99.90;;;;;;5153459;27;20039;-71
2023/01/29 00:16:31;;;;;;;23.42;9.52;;;2.70;99.90;;;;;;5140523;27;20058;-71
2023/01/29 00:18:57;;;;;;;26.50;9.35;;;2.90;99.90;;;;;;5152514;27;20043;-71
2023/01/29 00:21:23;;;;;;;22.85;9.00;;;2.60;99.90;;;;;;5152984;27;20046;-73
2023/01/29 00:23:50;;;;;;;21.75;8.27;;;2.90;99.90;;;;;;5151224;27;20038;-71
2023/01/29 00:26:15;;;;;;;;;;;2.60;99.90;;;;;;5154042;27;20599;-71
2023/01/29 00:28:41;;;;;;;22.45;8.73;;;2.60;99.90;;;;;;5152167;27;19972;-71
2023/01/29 00:31:13;;;;;;;23.95;9.02;;;2.60;99.90;;;;;;5130612;27;20057;-71
2023/01/29 00:33:39;;;;;;;20.80;9.40;;;2.60;99.90;;;;;;5145496;27;20050;-71
2023/01/29 00:36:07;;;;;;;21.58;9.15;;;2.60;99.90;;;;;;5152548;27;20089;-72
2023/01/29 00:38:33;;;;;;;21.33;8.65;;;2.60;99.90;;;;;;5141684;27;20523;-71
2023/01/29 00:46:34;;;;;;;19.58;8.63;;;2.70;99.90;;;;;;5166402;27;20057;-71
2023/01/29 00:49:00;;;;;;;19.67;8.68;;;2.70;99.90;;;;;;5152166;27;20046;-71
2023/01/29 00:51:25;;;;;;;20.05;8.20;;;2.70;99.90;;;;;;5152421;27;20046;-74
2023/01/29 00:53:53;;;;;;;25.08;9.45;;;2.70;99.90;;;;;;5150781;27;20042;-72
2023/01/29 00:56:19;;;;;;;22.48;9.55;;;2.80;99.90;;;;;;5134634;27;20054;-71
2023/01/29 00:58:44;;;;;;;17.42;8.20;;;2.90;99.90;;;;;;5148293;27;20174;-71
2023/01/29 01:01:10;;;;;;;21.52;9.23;;;2.80;99.90;;;;;;5134398;27;20049;-71
2023/01/29 01:03:41;;;;;;;20.13;8.45;;;2.80;99.90;;;;;;5137977;27;20075;-71
2023/01/29 01:06:09;;;;;;;19.83;9.07;;;2.80;99.90;;;;;;5153002;27;20426;-71
2023/01/29 01:11:19;;;;;;;18.73;7.63;;;3.20;99.90;;;;;;5152687;27;20058;-71
2023/01/29 01:13:45;;;;;;;20.42;8.63;;;2.80;99.90;;;;;;5133990;27;20581;-72
2023/01/29 01:16:14;;;;;;;19.90;8.23;;;2.90;99.90;;;;;;5152812;27;20053;-72
2023/01/29 01:18:40;;;;;;;19.55;7.53;;;2.90;99.90;;;;;;5151848;27;20134;-71
2023/01/29 01:21:06;;;;;;;21.35;8.23;;;2.90;99.90;;;;;;5152685;27;20703;-71
2023/01/29 01:23:32;;;;;;;20.13;8.20;;;2.80;99.90;;;;;;5149864;27;20053;-72
2023/01/29 01:25:58;;;;;;;21.98;8.43;;;2.90;99.90;;;;;;5151497;27;20114;-71
2023/01/29 01:28:24;;;;;;;22.42;8.85;;;2.80;99.90;;;;;;5150324;27;20095;-71
2023/01/29 01:30:50;;;;;;;25.02;8.95;;;3.00;99.90;;;;;;5152018;27;20038;-71
2023/01/29 01:33:16;;;;;;;19.40;7.93;;;2.80;99.90;;;;;;5131172;27;20668;-71
2023/01/29 01:35:41;;;;;;;20.90;8.45;;;2.80;99.90;;;;;;5144278;27;20127;-71
2023/01/29 01:38:07;;;;;;;18.75;7.70;;;2.80;99.90;;;;;;5150610;27;20134;-71
2023/01/29 01:40:33;;;;;;;20.75;7.85;;;2.80;99.90;;;;;;5151995;27;20095;-71
2023/01/29 01:42:59;;;;;;;17.95;8.15;;;2.90;99.90;;;;;;5133679;27;20484;-71
2023/01/29 01:45:34;;;;;;;20.08;8.30;;;2.90;99.90;;;;;;5152261;27;20091;-71
2023/01/29 01:48:17;;;;;;;19.92;8.55;;;2.80;99.90;;;;;;5151783;27;20548;-71
2023/01/29 01:50:49;;;;;;;16.05;7.00;;;2.80;99.90;;;;;;5151642;27;20081;-71
2023/01/29 01:53:25;;;;;;;21.90;8.63;;;2.80;99.90;;;;;;5150344;27;20050;-71
2023/01/29 01:55:59;;;;;;;23.33;9.25;;;2.80;99.90;;;;;;5151666;27;20238;-71
2023/01/29 01:58:30;;;;;;;24.63;8.98;;;2.80;99.90;;;;;;5148675;27;20104;-71
2023/01/29 02:00:57;;;;;;;22.55;8.38;;;3.20;99.90;;;;;;5131057;27;20047;-71
2023/01/29 02:11:45;;;;;;;20.60;8.20;;;3.70;99.90;;;;;;5130583;27;20066;-72
2023/01/29 02:14:11;;;;;;;20.88;8.77;;;2.80;99.90;;;;;;5150286;27;20039;-71
2023/01/29 02:16:37;;;;;;;20.60;8.90;;;3.20;99.90;;;;;;5150707;27;20495;-70
2023/01/29 02:19:10;;;;;;;;;;;2.80;99.90;;;;;;5146631;27;20046;-71
2023/01/29 02:21:41;;;;;;;19.63;8.70;;;2.80;99.90;;;;;;5130432;27;19971;-71
2023/01/29 02:24:22;;;;;;;21.65;8.40;;;2.80;99.90;;;;;;5127870;27;20544;-71
2023/01/29 02:27:09;;;;;;;22.30;7.97;;;2.80;99.90;;;;;;5130077;27;20082;-72
2023/01/29 02:29:41;;;;;;;;;;;2.80;99.90;;;;;;5130708;27;20039;-72
2023/01/29 02:32:20;;;;;;;20.20;8.23;;;2.80;99.90;;;;;;5130416;27;19977;-71
2023/01/29 02:38:16;;;;;;;20.10;7.50;;;3.60;99.90;;;;;;5127948;27;20386;-72
2023/01/29 02:41:04;;;;;;;21.15;9.23;;;2.80;99.90;;;;;;5114127;27;20126;-71
2023/01/29 02:43:50;;;;;;;21.83;8.35;;;2.80;99.90;;;;;;5112099;27;20054;-71
2023/01/29 02:46:40;;;;;;;20.00;7.85;;;3.30;99.90;;;;;;5130544;27;20047;-72
2023/01/29 02:49:23;;;;;;;25.92;10.02;;;2.80;99.90;;;;;;5130015;27;20039;-71
2023/01/29 02:52:06;;;;;;;21.33;8.93;;;2.80;99.90;;;;;;5129548;27;20530;-72
2023/01/29 02:54:43;;;;;;;20.30;7.93;;;2.80;99.90;;;;;;5129578;27;20050;-71
2023/01/29 02:57:19;;;;;;;21.92;8.07;;;2.80;99.90;;;;;;5130474;27;20062;-71
2023/01/29 02:59:58;;;;;;;20.10;8.15;;;2.80;99.90;;;;;;5129612;27;20043;-73
2023/01/29 03:02:52;;;;;;;18.58;7.90;;;2.70;99.90;;;;;;5132866;27;20047;-71
2023/01/29 03:05:43;;;;;;;24.33;8.30;;;2.80;99.90;;;;;;5130373;28;20039;-71
2023/01/29 03:08:14;;;;;;;21.08;8.65;;;2.70;99.90;;;;;;5137560;27;20062;-71
2023/01/29 03:10:48;;;;;;;20.17;9.05;;;2.70;99.90;;;;;;5150388;27;20555;-71
2023/01/29 03:13:31;;;;;;;19.92;8.32;;;2.70;99.90;;;;;;5150868;27;20043;-71
2023/01/29 03:16:25;;;;;;;27.58;10.40;;;2.70;99.90;;;;;;5150368;27;20046;-71
2023/01/29 03:19:00;;;;;;;20.52;8.30;;;2.70;99.90;;;;;;5124041;27;20055;-71
2023/01/29 03:32:54;;;;;;;;;;;2.70;99.90;;;;;;5149982;27;20061;-72
2023/01/29 03:35:32;;;;;;;21.33;8.73;;;2.70;99.90;;;;;;5140922;27;20330;-71
2023/01/29 03:37:59;;;;;;;23.70;9.25;;;3.10;99.90;;;;;;5127552;28;20130;-71
2023/01/29 03:40:26;;;;;;;20.60;8.95;;;2.70;99.90;;;;;;5145163;27;20588;-71
2023/01/29 03:43:06;;;;;;;25.30;10.32;;;2.70;99.90;;;;;;5150095;27;20046;-71
2023/01/29 03:46:03;;;;;;;24.23;9.52;;;2.90;99.90;;;;;;5149701;27;20042;-71
2023/01/29 03:48:54;;;;;;;25.27;9.45;;;2.70;99.90;;;;;;5133143;27;20111;-72
2023/01/29 03:51:54;;;;;;;20.30;9.40;;;2.70;99.90;;;;;;5154668;27;20043;-70
2023/01/29 03:54:45;;;;;;;22.42;9.10;;;2.70;99.90;;;;;;5132225;27;20043;-71
2023/01/29 03:57:25;;;;;;;19.60;8.57;;;2.80;99.90;;;;;;5134285;27;20043;-71
2023/01/29 04:00:03;;;;;;;25.60;9.68;;;2.80;99.90;;;;;;5150300;27;20082;-70
2023/01/29 04:02:42;;;;;;;19.15;8.65;;;2.80;99.90;;;;;;5135566;27;20101;-71
2023/01/29 04:05:21;;;;;;;22.83;8.85;;;2.80;99.90;;;;;;5154182;27;20088;-71
2023/01/29 04:07:53;;;;;;;27.02;11.02;;;2.80;99.90;;;;;;5129993;27;20815;-71
2023/01/29 04:10:25;;;;;;;24.13;9.82;;;3.30;99.90;;;;;;5133709;27;20503;-71
2023/01/29 04:13:00;;;;;;;24.92;10.38;;;2.90;99.90;;;;;;5132541;27;20555;-71
2023/01/29 04:15:32;;;;;;;29.48;10.90;;;2.90;99.90;;;;;;5117257;27;20476;-72
2023/01/29 04:17:58;;;;;;;20.77;8.98;;;3.00;99.90;;;;;;5111831;28;20051;-71
2023/01/29 04:20:24;;;;;;;22.63;9.98;;;2.90;99.90;;;;;;5112572;28;20044;-71
2023/01/29 04:22:51;;;;;;;21.73;9.98;;;2.90;99.90;;;;;;5110071;28;20055;-73
2023/01/29 04:25:27;;;;;;;24.83;10.27;;;2.90;99.90;;;;;;5111300;28;20442;-71
2023/01/29 04:28:19;;;;;;;25.40;10.15;;;2.90;99.90;;;;;;5112250;28;20044;-71
2023/01/29 04:31:04;;;;;;;24.95;10.25;;;2.90;99.90;;;;;;5112142;28;20056;-71
2023/01/29 04:33:55;;;;;;;23.23;10.38;;;2.90;99.90;;;;;;5122245;27;20042;-71
2023/01/29 04:36:37;;;;;;;26.05;10.32;;;2.90;99.90;;;;;;5131605;27;20055;-72
2023/01/29 04:39:19;;;;;;;21.10;9.77;;;2.90;99.90;;;;;;5112730;27;20402;-71
2023/01/29 04:41:58;;;;;;;22.85;9.68;;;3.00;99.90;;;;;;5111744;28;20079;-71
2023/01/29 04:44:45;;;;;;;23.67;10.35;;;3.50;99.90;;;;;;5112312;28;20104;-71
2023/01/29 04:47:35;;;;;;;24.67;9.88;;;3.00;99.90;;;;;;5110984;28;20059;-71
2023/01/29 04:50:15;;;;;;;24.83;9.93;;;3.00;99.90;;;;;;5123427;27;20051;-71
2023/01/29 04:52:51;;;;;;;25.23;10.05;;;3.00;99.90;;;;;;5130540;27;20050;-71
2023/01/29 04:55:31;;;;;;;23.52;10.32;;;3.00;99.90;;;;;;5132721;27;20142;-70
2023/01/29 04:58:15;;;;;;;22.30;9.75;;;3.00;99.90;;;;;;5130056;27;20042;-71
2023/01/29 05:00:48;;;;;;;28.90;10.85;;;3.00;99.90;;;;;;5132132;27;20437;-71
2023/01/29 05:03:15;;;;;;;22.27;10.00;;;3.00;99.90;;;;;;5112283;27;20044;-71
2023/01/29 05:05:44;;;;;;;23.48;9.23;;;3.00;99.90;;;;;;5111946;28;20055;-70
2023/01/29 05:08:12;;;;;;;22.67;10.05;;;3.00;99.90;;;;;;5124931;27;20138;-71
2023/01/29 05:10:39;;;;;;;25.35;11.65;;;3.00;99.90;;;;;;5152743;27;20053;-71
2023/01/29 05:13:10;;;;;;;21.63;9.63;;;3.00;99.90;;;;;;5152321;27;20054;-71
2023/01/29 05:15:44;;;;;;;26.02;10.65;;;3.00;99.90;;;;;;5153000;27;20054;-71
2023/01/29 05:18:10;;;;;;;24.83;10.65;;;3.00;99.90;;;;;;5152360;27;20057;-70
2023/01/29 05:20:38;;;;;;;25.67;9.35;;;3.00;99.90;;;;;;5152528;27;20039;-72
2023/01/29 05:23:04;;;;;;;25.48;11.02;;;3.10;99.90;;;;;;5150076;27;20065;-71
2023/01/29 05:25:31;;;;;;;24.33;11.57;;;3.10;99.90;;;;;;5136562;27;20053;-71
2023/01/29 05:28:12;;;;;;;24.42;10.25;;;3.10;99.90;;;;;;5131385;27;20130;-71
2023/01/29 05:30:39;;;;;;;25.83;11.48;;;3.10;99.90;;;;;;5131876;27;20043;-71
2023/01/29 05:33:15;;;;;;;25.52;11.40;;;3.10;99.90;;;;;;5130935;27;20051;-71
2023/01/29 05:35:41;;;;;;;20.58;10.00;;;3.10;99.90;;;;;;5132057;27;20057;-71
2023/01/29 05:38:07;;;;;;;25.75;11.50;;;3.10;99.90;;;;;;5111424;27;20753;-72
2023/01/29 05:40:33;;;;;;;22.13;10.75;;;3.10;99.90;;;;;;5142033;27;20135;-71
2023/01/29 05:42:59;;;;;;;23.88;10.02;;;3.10;99.90;;;;;;5151704;27;20523;-71
2023/01/29 05:45:25;;;;;;;25.27;11.30;;;3.10;99.90;;;;;;5151678;27;20432;-71
2023/01/29 05:47:55;;;;;;;22.67;10.30;;;3.20;99.90;;;;;;5151190;27;20133;-71
2023/01/29 05:50:21;;;;;;;28.48;10.77;;;3.10;99.90;;;;;;5133680;27;20407;-72
2023/01/29 05:52:46;;;;;;;24.98;11.38;;;3.10;99.90;;;;;;5150062;27;20054;-72
2023/01/29 05:55:12;;;;;;;27.00;10.95;;;3.10;99.90;;;;;;5151645;27;20568;-71
2023/01/29 05:57:39;;;;;;;24.15;10.68;;;3.10;99.90;;;;;;5152146;27;20051;-72
2023/01/29 06:00:06;;;;;;;22.27;10.82;;;3.10;99.90;;;;;;5151365;27;20038;-71
2023/01/29 06:02:33;;;;;;;24.52;11.15;;;3.10;99.90;;;;;;5150379;27;20395;-71
2023/01/29 06:04:58;;;;;;;24.20;10.70;;;3.20;99.90;;;;;;5143356;27;20050;-71
2023/01/29 06:07:24;;;;;;;25.92;10.95;;;3.10;99.90;;;;;;5149171;27;20047;-71
2023/01/29 06:09:50;;;;;;;24.67;10.88;;;3.20;99.90;;;;;;5131658;27;20058;-74
2023/01/29 06:12:15;;;;;;;25.10;11.57;;;3.10;99.90;;;;;;5118212;27;20503;-72
2023/01/29 06:14:41;;;;;;;26.95;11.77;;;3.10;99.90;;;;;;5151650;27;20102;-71
2023/01/29 06:17:07;;;;;;;25.15;11.65;;;3.10;99.90;;;;;;5132760;27;20155;-71
2023/01/29 06:19:32;;;;;;;26.10;11.68;;;3.10;99.90;;;;;;5151397;27;20079;-71
2023/01/29 06:21:58;;;;;;;24.90;10.80;;;3.10;99.90;;;;;;5150186;27;20441;-72
2023/01/29 06:24:24;;;;;;;25.60;11.00;;;3.10;99.90;;;;;;5149293;27;20047;-72
2023/01/29 06:26:49;;;;;;;27.58;11.07;;;3.10;99.90;;;;;;5144654;27;20125;-74
2023/01/29 06:29:15;;;;;;;26.33;12.10;;;3.10;99.90;;;;;;5151621;27;20483;-70
2023/01/29 06:31:41;;;;;;;27.88;11.52;;;3.10;99.90;;;;;;5133006;27;20121;-71
2023/01/29 06:34:07;;;;;;;26.33;12.27;;;3.10;99.90;;;;;;5150038;27;20061;-71
2023/01/29 06:36:33;;;;;;;25.23;11.63;;;3.10;99.90;;;;;;5151419;27;20057;-71
2023/01/29 06:38:59;;;;;;;24.13;10.95;;;3.10;99.90;;;;;;5148105;27;20083;-71
2023/01/29 06:41:24;;;;;;;26.48;11.13;;;3.00;99.90;;;;;;5150959;27;20399;-71
2023/01/29 06:43:50;;;;;;;27.02;11.93;;;3.00;99.90;;;;;;5150784;27;20043;-73
2023/01/29 06:46:16;;;;;;;29.38;11.98;;;3.00;99.90;;;;;;5132592;27;20609;-71
2023/01/29 06:48:42;;;;;;;26.77;11.73;;;3.00;99.90;;;;;;5149261;27;20046;-70
2023/01/29 06:51:09;;;;;;;25.70;11.30;;;3.00;99.90;;;;;;5143451;27;20030;-71
2023/01/29 06:53:36;;;;;;;29.45;12.05;;;3.00;99.90;;;;;;5149071;27;20142;-72
2023/01/29 06:56:03;;;;;;;27.00;12.18;;;3.00;99.90;;;;;;5150765;27;20047;-71
2023/01/29 06:58:29;;;;;;;27.83;11.00;;;3.00;99.90;;;;;;5151125;27;20043;-71
2023/01/29 07:01:06;;;;;;;27.17;11.95;;;3.10;99.90;;;;;;5150363;27;20099;-71
2023/01/29 07:03:31;;;;;;;25.60;10.98;;;3.00;99.90;;;;;;5150632;27;20444;-71
2023/01/29 07:05:57;;;;;;;29.38;12.18;;;3.10;99.90;;;;;;5132163;27;20058;-72
2023/01/29 07:08:23;;;;;;;26.88;11.27;;;3.10;99.90;;;;;;5149062;27;20107;-71
2023/01/29 07:10:49;;;;;;;27.60;11.70;;;3.10;99.90;;;;;;5134209;27;20515;-71
2023/01/29 07:13:15;;;;;;;;;;;3.00;99.90;;;;;;5130025;28;20054;-71
2023/01/29 07:15:41;;;;;;;27.67;11.20;;;3.00;99.90;;;;;;5130188;28;19919;-71
2023/01/29 07:18:11;;;;;;;25.50;11.80;;;3.00;99.90;;;;;;5129180;28;20051;-71
2023/01/29 07:20:39;;;;;;;26.52;10.77;;;3.60;99.90;;;;;;5111808;28;20047;-72
2023/01/29 07:23:05;;;;;;;27.45;11.82;;;3.00;99.90;;;;;;5129988;27;20047;-71
2023/01/29 07:25:32;;;;;;;;;;;3.00;99.90;;;;;;5134695;27;20053;-71
2023/01/29 07:28:00;;;;;;;25.90;11.65;;;3.10;99.90;;;;;;5133738;27;19923;-72
2023/01/29 07:30:26;;;;;;;26.02;11.48;;;3.20;99.90;;;;;;5134243;27;20049;-71
2023/01/29 07:32:52;;;;;;;28.02;12.23;;;3.00;99.90;;;;;;5133663;27;20134;-71
2023/01/29 07:35:17;;;;;;;22.88;11.60;;;3.00;99.90;;;;;;5141198;27;20054;-71
2023/01/29 07:37:43;;;;;;;25.23;10.93;;;3.00;99.90;;;;;;5153288;27;20467;-71
2023/01/29 07:40:10;;;;;;;26.80;12.07;;;3.00;99.90;;;;;;5154102;27;20493;-72
2023/01/29 07:42:40;;;;;;;27.35;11.90;;;3.00;99.90;;;;;;5154631;27;20488;-71
2023/01/29 07:45:07;;;;;;;28.02;12.45;;;3.00;99.90;;;;;;5154130;27;20058;-71
2023/01/29 07:47:33;;;;;;;25.95;11.68;;;3.00;99.90;;;;;;5154038;27;20049;-71
2023/01/29 07:49:59;;;;;;;26.17;11.98;;;3.00;99.90;;;;;;5154102;27;20043;-71
2023/01/29 07:52:25;;;;;;;26.08;11.93;;;2.90;99.90;;;;;;5132331;27;20054;-71
2023/01/29 07:54:50;;;;;;;24.83;11.85;;;2.90;99.90;;;;;;5141204;27;20042;-72
2023/01/29 07:57:16;;;;;;;29.15;12.48;;;2.90;99.90;;;;;;5125103;27;20137;-71
2023/01/29 07:59:42;;;;;;;33.00;13.18;;;2.90;99.90;;;;;;5142128;27;20099;-72
2023/01/29 08:02:08;;;;;;;28.10;11.77;;;2.90;99.90;;;;;;5153589;27;20096;-71
2023/01/29 08:04:34;;;;;;;23.80;10.57;;;3.00;99.90;;;;;;5150321;27;20043;-72
2023/01/29 08:07:00;;;;;;;25.27;11.93;;;2.90;99.90;;;;;;5113984;27;20092;-74
2023/01/29 08:09:25;;;;;;;26.35;12.32;;;3.00;99.90;;;;;;5132432;27;20043;-71
2023/01/29 08:11:51;;;;;;;30.35;12.65;;;3.00;99.90;;;;;;5141247;27;20731;-71
2023/01/29 08:14:17;;;;;;;26.75;11.70;;;3.00;99.90;;;;;;5131935;27;20074;-71
2023/01/29 08:16:42;;;;;;;27.27;11.02;;;3.00;99.90;;;;;;5135449;27;20050;-71
2023/01/29 08:19:08;;;;;;;26.77;11.90;;;3.00;99.90;;;;;;5132244;27;20105;-71
2023/01/29 08:21:34;;;;;;;29.83;12.50;;;3.00;99.90;;;;;;5114667;27;20047;-71
2023/01/29 08:23:59;;;;;;;25.90;11.27;;;3.00;99.90;;;;;;5131128;27;20043;-75
2023/01/29 08:26:26;;;;;;;28.52;11.13;;;3.00;99.90;;;;;;5133381;27;20484;-70
2023/01/29 08:28:52;;;;;;;22.58;10.60;;;3.00;99.90;;;;;;5119841;27;20050;-69
2023/01/29 08:31:21;;;;;;;26.77;12.13;;;3.50;99.90;;;;;;5153125;27;20039;-73
2023/01/29 08:33:48;;;;;;;27.55;12.52;;;3.10;99.90;;;;;;5152577;27;20050;-74
2023/01/29 08:36:13;;;;;;;;;;;3.20;99.90;;;;;;5153907;27;20053;-74
2023/01/29 08:38:39;;;;;;;22.45;10.55;;;3.30;99.90;;;;;;5150741;27;19927;-72
2023/01/29 08:41:06;;;;;;;27.90;11.73;;;3.40;99.90;;;;;;5153107;27;20498;-69
2023/01/29 08:43:31;;;;;;;26.30;10.27;;;3.40;99.90;;;;;;5145785;27;20492;-72
2023/01/29 08:45:57;;;;;;;26.75;11.07;;;3.40;99.90;;;;;;5137638;27;20051;-71
2023/01/29 08:48:24;;;;;;;25.33;11.00;;;3.30;99.90;;;;;;5131640;27;20150;-71
2023/01/29 08:50:50;;;;;;;26.98;10.70;;;3.20;99.90;;;;;;5132614;27;20447;-71
2023/01/29 08:53:15;;;;;;;22.48;10.35;;;3.10;99.90;;;;;;5111869;27;20135;-71
2023/01/29 08:55:41;;;;;;;26.23;11.82;;;3.10;99.90;;;;;;5132612;27;20051;-70
2023/01/29 08:58:09;;;;;;;26.45;11.20;;;3.00;99.90;;;;;;5131854;27;20051;-72
2023/01/29 09:00:35;;;;;;;23.25;11.30;;;3.00;99.90;;;;;;5132410;27;20039;-72
2023/01/29 09:03:02;;;;;;;27.83;12.48;;;3.00;99.90;;;;;;5135134;27;20484;-73
2023/01/29 09:05:28;;;;;;;28.23;12.02;;;3.40;99.90;;;;;;5141438;27;20062;-71
2023/01/29 09:07:55;;;;;;;;;;;3.00;99.90;;;;;;5130824;27;20051;-72
2023/01/29 09:10:21;;;;;;;31.58;11.82;;;3.00;99.90;;;;;;5113284;27;19930;-71
2023/01/29 09:12:47;;;;;;;28.05;12.38;;;3.00;99.90;;;;;;5132167;27;20047;-71
2023/01/29 09:15:13;;;;;;;24.52;10.82;;;3.00;99.90;;;;;;5131599;27;20481;-71
2023/01/29 09:17:39;;;;;;;28.17;12.15;;;3.10;99.90;;;;;;5131789;27;20051;-72
2023/01/29 09:20:06;;;;;;;28.77;11.82;;;3.60;99.90;;;;;;5131357;27;20499;-71
2023/01/29 09:22:32;;;;;;;30.10;12.70;;;3.00;99.90;;;;;;5130283;27;20043;-71
2023/01/29 09:24:58;;;;;;;26.50;11.95;;;3.00;99.90;;;;;;5131872;27;20039;-71
2023/01/29 09:27:24;;;;;;;30.35;12.18;;;3.30;99.90;;;;;;5131403;27;20592;-71
2023/01/29 09:29:50;;;;;;;27.13;12.02;;;3.00;99.90;;;;;;5131885;27;20051;-71
2023/01/29 09:32:15;;;;;;;32.03;12.27;;;3.00;99.90;;;;;;5131187;27;20047;-72
2023/01/29 09:34:41;;;;;;;30.98;12.48;;;3.10;99.90;;;;;;5143938;27;20078;-72
2023/01/29 09:37:07;;;;;;;24.65;11.73;;;3.10;99.90;;;;;;5147706;27;20061;-72
2023/01/29 09:39:33;;;;;;;30.30;13.20;;;3.10;99.90;;;;;;5151291;27;20046;-72
2023/01/29 09:42:05;;;;;;;;;;;3.10;99.90;;;;;;5152755;27;20381;-70
2023/01/29 09:44:58;;;;;;;27.10;12.20;;;3.20;99.90;;;;;;5151994;27;19990;-70
2023/01/29 09:47:26;;;;;;;25.30;11.27;;;3.20;99.90;;;;;;5150381;27;20141;-70
2023/01/29 09:49:57;;;;;;;24.92;11.60;;;3.30;99.90;;;;;;5116840;27;20050;-73
2023/01/29 09:52:31;;;;;;;26.67;12.20;;;3.30;99.90;;;;;;5139331;27;20130;-71
2023/01/29 09:55:25;;;;;;;30.13;12.75;;;3.30;99.90;;;;;;5141810;27;20051;-72
2023/01/29 09:57:54;;;;;;;27.88;12.43;;;3.40;99.90;;;;;;5129535;27;20058;-74
2023/01/29 10:00:26;;;;;;;24.67;11.38;;;3.40;99.90;;;;;;5166488;27;20034;-72
2023/01/29 10:03:01;;;;;;;24.60;11.60;;;4.10;99.90;;;;;;5152488;27;20042;-73
2023/01/29 10:05:34;;;;;;;28.75;12.25;;;3.50;99.90;;;;;;5151672;27;20044;-73
2023/01/29 10:08:11;;;;;;;26.23;12.80;;;3.50;99.90;;;;;;5163601;27;20053;-74
2023/01/29 10:11:23;;;;;;;30.65;12.70;;;3.50;99.90;;;;;;5161429;27;20057;-74
2023/01/29 10:14:11;;;;;;;29.65;11.85;;;3.70;99.90;;;;;;5163448;27;20061;-73
2023/01/29 10:16:58;;;;;;;29.20;12.13;;;3.80;99.90;;;;;;5172277;27;20046;-74
2023/01/29 10:19:42;;;;;;;26.53;11.47;;;3.80;99.90;;;;;;5158034;27;20045;-73
2023/01/29 10:22:28;;;;;;;27.23;12.02;;;3.90;99.90;;;;;;5165649;27;20042;-74
2023/01/29 10:25:01;;;;;;;25.20;11.80;;;4.00;99.90;;;;;;5167108;27;20075;-72
2023/01/29 10:27:33;;;;;;;28.10;12.00;;;4.10;99.90;;;;;;5133223;27;20152;-73
2023/01/29 10:30:01;;;;;;;28.52;12.88;;;4.10;99.90;;;;;;5158072;27;20042;-73
2023/01/29 10:32:29;;;;;;;23.52;11.45;;;4.20;99.90;;;;;;5160337;27;20575;-73
2023/01/29 10:35:03;;;;;;;25.17;11.77;;;4.10;99.90;;;;;;5160120;27;20046;-72
2023/01/29 10:37:40;;;;;;;29.25;12.10;;;4.10;99.90;;;;;;5150662;27;20038;-73
2023/01/29 10:40:35;;;;;;;;;;;4.00;99.90;;;;;;5172516;27;20042;-73
2023/01/29 10:43:16;;;;;;;28.48;12.52;;;4.00;99.90;;;;;;5137574;27;20290;-75
2023/01/29 10:45:46;;;;;;;26.60;11.15;;;4.00;99.90;;;;;;5162737;27;20441;-73
2023/01/29 10:48:40;;;;;;;24.75;11.85;;;4.00;99.90;;;;;;5165221;27;20075;-75
2023/01/29 10:51:25;;;;;;;26.55;11.57;;;4.10;99.90;;;;;;5171218;27;20170;-75
2023/01/29 10:54:22;;;;;;;24.70;11.10;;;4.00;99.90;;;;;;5155296;27;20172;-72
2023/01/29 10:57:25;;;;;;;27.58;12.00;;;4.00;99.90;;;;;;5151990;27;20038;-73
2023/01/29 11:00:12;;;;;;;28.08;12.60;;;4.10;99.90;;;;;;5166229;27;20054;-74
2023/01/29 11:02:47;;;;;;;27.97;12.73;;;4.10;99.90;;;;;;5171179;27;20078;-72
2023/01/29 11:05:21;;;;;;;23.63;10.88;;;4.10;99.90;;;;;;5155765;27;20090;-76
2023/01/29 11:07:54;;;;;;;24.23;10.45;;;4.20;99.90;;;;;;5166004;27;20054;-72
2023/01/29 11:10:22;;;;;;;27.10;12.15;;;4.30;99.90;;;;;;5170939;27;20138;-73
2023/01/29 11:12:49;;;;;;;27.50;11.80;;;4.30;99.90;;;;;;5166615;27;20038;-72
2023/01/29 11:15:31;;;;;;;28.73;10.80;;;4.20;99.90;;;;;;5168509;27;20038;-73
2023/01/29 11:18:01;;;;;;;24.52;12.10;;;4.30;99.90;;;;;;5163049;27;20053;-73
2023/01/29 11:20:29;;;;;;;27.63;11.95;;;4.40;99.90;;;;;;5168504;27;20057;-72
2023/01/29 11:22:55;;;;;;;26.83;11.70;;;4.40;99.90;;;;;;5167956;27;20046;-72
2023/01/29 11:25:21;;;;;;;24.48;11.70;;;4.50;99.90;;;;;;5159327;27;20038;-73
2023/01/29 11:27:51;;;;;;;23.77;11.07;;;4.50;99.90;;;;;;5149954;27;20042;-72
2023/01/29 11:30:32;;;;;;;28.75;11.80;;;4.50;99.90;;;;;;5170258;27;20091;-72
2023/01/29 11:33:08;;;;;;;31.70;13.40;;;4.40;99.90;;;;;;5167217;27;20042;-73
2023/01/29 11:35:35;;;;;;;26.13;11.35;;;4.40;99.90;;;;;;5165926;27;20395;-72
2023/01/29 11:38:15;;;;;;;28.42;12.05;;;4.40;99.90;;;;;;5170537;27;20046;-72
2023/01/29 11:40:42;;;;;;;26.10;11.77;;;4.40;99.90;;;;;;5168322;27;20042;-72
2023/01/29 11:43:17;;;;;;;28.80;12.88;;;4.40;99.90;;;;;;5151073;27;20068;-73
2023/01/29 11:45:43;;;;;;;26.23;12.05;;;4.50;99.90;;;;;;5147878;27;20045;-72
2023/01/29 11:48:31;;;;;;;24.05;11.05;;;4.40;99.90;;;;;;5141937;27;20103;-72
2023/01/29 11:50:59;;;;;;;26.02;11.93;;;4.40;99.90;;;;;;5133042;27;20090;-72
2023/01/29 11:53:36;;;;;;;32.17;12.25;;;4.40;99.90;;;;;;5149169;27;20127;-72
2023/01/29 11:56:05;;;;;;;27.40;12.10;;;4.50;99.90;;;;;;5151586;27;20119;-72
2023/01/29 11:58:34;;;;;;;27.73;11.30;;;4.30;99.90;;;;;;5150453;27;20114;-72
2023/01/29 12:01:00;;;;;;;22.85;11.18;;;4.30;99.90;;;;;;5132869;27;20070;-73
2023/01/29 12:03:34;;;;;;;30.27;12.35;;;4.20;99.90;;;;;;5150323;27;20085;-72
2023/01/29 12:06:22;;;;;;;26.88;11.80;;;4.20;99.90;;;;;;5140087;27;20096;-72
2023/01/29 12:09:00;;;;;;;28.63;11.02;;;4.20;99.90;;;;;;5147148;27;20494;-72
2023/01/29 12:11:34;;;;;;;28.30;12.60;;;4.20;99.90;;;;;;5161143;27;20106;-72
2023/01/29 12:14:05;;;;;;;26.20;12.30;;;4.20;99.90;;;;;;5160828;27;20042;-72
2023/01/29 12:16:48;;;;;;;25.85;11.07;;;4.20;99.90;;;;;;5150140;27;20115;-72
2023/01/29 12:19:53;;;;;;;27.67;12.00;;;4.10;99.90;;;;;;5156381;27;20075;-72
2023/01/29 12:23:00;;;;;;;25.27;11.98;;;4.10;99.90;;;;;;5172957;27;20117;-75
2023/01/29 12:25:41;;;;;;;31.77;11.80;;;4.10;99.90;;;;;;5131714;27;20059;-72
2023/01/29 12:28:24;;;;;;;28.50;12.68;;;4.10;99.90;;;;;;5145068;27;20050;-72
2023/01/29 12:31:20;;;;;;;31.15;12.27;;;4.10;99.90;;;;;;5143495;27;20050;-72
2023/01/29 12:33:49;;;;;;;29.83;13.30;;;4.10;99.90;;;;;;5155556;27;20556;-74
2023/01/29 12:36:27;;;;;;;30.80;13.18;;;4.00;99.90;;;;;;5170194;27;20095;-76
2023/01/29 12:38:54;;;;;;;27.90;11.75;;;4.10;99.90;;;;;;5172445;27;20042;-73
2023/01/29 12:41:51;;;;;;;29.27;12.00;;;4.00;99.90;;;;;;5173530;27;20149;-75
2023/01/29 12:44:24;;;;;;;25.23;11.60;;;4.10;99.90;;;;;;5169620;27;20046;-74
2023/01/29 12:46:55;;;;;;;28.25;12.35;;;4.10;99.90;;;;;;5175353;27;20633;-73
2023/01/29 12:49:32;;;;;;;28.65;12.10;;;4.10;99.90;;;;;;5171049;27;20514;-73
2023/01/29 12:52:12;;;;;;;28.80;12.40;;;4.00;99.90;;;;;;5149059;27;20067;-75
2023/01/29 12:54:48;;;;;;;26.05;12.55;;;4.00;99.90;;;;;;5173985;27;20054;-73
2023/01/29 12:57:31;;;;;;;30.48;12.57;;;4.00;99.90;;;;;;5107583;27;20050;-74
2023/01/29 13:00:15;;;;;;;28.67;12.15;;;4.00;99.90;;;;;;5155518;27;20049;-74
2023/01/29 13:02:46;;;;;;;33.65;13.00;;;4.00;99.90;;;;;;5155214;27;20046;-71
2023/01/29 13:05:41;;;;;;;31.77;13.35;;;3.90;99.90;;;;;;5166516;27;20049;-73
2023/01/29 13:08:16;;;;;;;32.35;13.50;;;3.80;99.90;;;;;;5154580;27;20058;-72
2023/01/29 13:10:47;;;;;;;48.03;13.85;;;3.80;99.90;;;;;;5146033;27;20051;-72
2023/01/29 13:13:14;;;;;;;32.75;13.52;;;3.70;99.90;;;;;;5156939;27;20497;-72
2023/01/29 13:15:43;;;;;;;29.85;13.50;;;3.70;99.90;;;;;;5158495;27;20050;-72
2023/01/29 13:18:40;;;;;;;34.78;13.73;;;3.70;99.90;;;;;;5156009;27;20415;-70
2023/01/29 13:21:16;;;;;;;29.70;13.65;;;3.70;99.90;;;;;;5169055;27;20071;-72
2023/01/29 13:23:49;;;;;;;31.13;13.00;;;3.70;99.90;;;;;;5158744;27;20133;-71
2023/01/29 13:26:23;;;;;;;33.22;12.57;;;3.70;99.90;;;;;;5169165;27;20045;-72
2023/01/29 13:28:50;;;;;;;30.58;13.80;;;3.70;99.90;;;;;;5147211;27;20054;-71
2023/01/29 13:31:33;;;;;;;32.28;12.80;;;4.40;99.90;;;;;;5164759;27;20110;-71
2023/01/29 13:34:12;;;;;;;32.80;13.30;;;3.70;99.90;;;;;;5158283;27;20039;-71
2023/01/29 13:36:44;;;;;;;29.05;12.90;;;3.70;99.90;;;;;;5166831;27;20382;-71
2023/01/29 13:39:25;;;;;;;28.63;12.65;;;3.60;99.90;;;;;;5146179;27;20183;-70
2023/01/29 13:41:52;;;;;;;31.80;13.52;;;3.60;99.90;;;;;;5163779;27;20051;-70